sensor_id;sensor_type;location;lat;lon;timestamp;temperature;humidity
45619;DHT22;31343;47.520;19.144;2023-12-22T00:02:08;6.20;99.90
45619;DHT22;31343;47.520;19.144;2023-12-22T00:04:33;6.40;99.90
45619;DHT22;31343;47.520;19.144;2023-12-22T00:06:59;6.50;99.90
45619;DHT22;31343;47.520;19.144;2023-12-22T00:09:25;6.70;99.90
45619;DHT22;31343;47.520;19.144;2023-12-22T00:11:50;6.80;99.90
45619;DHT22;31343;47.520;19.144;2023-12-22T00:14:16;6.80;99.90
45619;DHT22;31343;47.520;19.144;2023-12-22T00:16:42;6.80;99.90
45619;DHT22;31343;47.520;19.144;2023-12-22T00:19:08;6.80;99.90
45619;DHT22;31343;47.520;19.144;2023-12-22T00:21:34;6.80;99.90
45619;DHT22;31343;47.520;19.144;2023-12-22T00:24:00;6.90;99.90
45619;DHT22;31343;47.520;19.144;2023-12-22T00:26:25;7.00;99.90
45619;DHT22;31343;47.520;19.144;2023-12-22T00:28:51;7.00;99.90
45619;DHT22;31343;47.520;19.144;2023-12-22T00:31:17;7.00;99.90
45619;DHT22;31343;47.520;19.144;2023-12-22T00:33:43;7.00;99.90
45619;DHT22;31343;47.520;19.144;2023-12-22T00:36:09;7.00;99.90
45619;DHT22;31343;47.520;19.144;2023-12-22T00:38:35;7.00;99.90
45619;DHT22;31343;47.520;19.144;2023-12-22T00:41:01;7.00;99.90
45619;DHT22;31343;47.520;19.144;2023-12-22T00:43:26;7.00;99.90
45619;DHT22;31343;47.520;19.144;2023-12-22T00:45:52;7.10;99.90
45619;DHT22;31343;47.520;19.144;2023-12-22T00:48:18;7.10;99.90
45619;DHT22;31343;47.520;19.144;2023-12-22T00:50:44;7.10;99.90
45619;DHT22;31343;47.520;19.144;2023-12-22T00:53:09;7.10;99.90
45619;DHT22;31343;47.520;19.144;2023-12-22T00:55:35;7.00;99.90
45619;DHT22;31343;47.520;19.144;2023-12-22T00:58:01;7.10;99.90
45619;DHT22;31343;47.520;19.144;2023-12-22T01:00:27;7.00;99.90
45619;DHT22;31343;47.520;19.144;2023-12-22T01:02:52;7.00;99.90
45619;DHT22;31343;47.520;19.144;2023-12-22T01:05:18;6.90;99.90
45619;DHT22;31343;47.520;19.144;2023-12-22T01:07:44;6.90;99.90
45619;DHT22;31343;47.520;19.144;2023-12-22T01:10:09;6.80;99.90
45619;DHT22;31343;47.520;19.144;2023-12-22T01:12:35;6.70;99.90
45619;DHT22;31343;47.520;19.144;2023-12-22T01:15:01;6.70;99.90
45619;DHT22;31343;47.520;19.144;2023-12-22T01:17:27;6.70;99.90
45619;DHT22;31343;47.520;19.144;2023-12-22T01:19:53;6.70;99.90
45619;DHT22;31343;47.520;19.144;2023-12-22T01:22:18;6.70;99.90
45619;DHT22;31343;47.520;19.144;2023-12-22T01:24:44;6.70;99.90
45619;DHT22;31343;47.520;19.144;2023-12-22T01:27:11;6.80;99.90
45619;DHT22;31343;47.520;19.144;2023-12-22T01:29:37;6.80;99.90
45619;DHT22;31343;47.520;19.144;2023-12-22T01:32:04;6.70;99.90
45619;DHT22;31343;47.520;19.144;2023-12-22T01:34:30;6.70;99.90
45619;DHT22;31343;47.520;19.144;2023-12-22T01:36:56;6.70;99.90
45619;DHT22;31343;47.520;19.144;2023-12-22T01:39:21;6.70;99.90
45619;DHT22;31343;47.520;19.144;2023-12-22T01:41:47;6.70;99.90
45619;DHT22;31343;47.520;19.144;2023-12-22T01:44:13;6.70;99.90
45619;DHT22;31343;47.520;19.144;2023-12-22T01:46:39;6.60;99.90
45619;DHT22;31343;47.520;19.144;2023-12-22T01:49:05;6.60;99.90
45619;DHT22;31343;47.520;19.144;2023-12-22T01:51:34;6.60;99.90
45619;DHT22;31343;47.520;19.144;2023-12-22T01:54:01;6.60;99.90
45619;DHT22;31343;47.520;19.144;2023-12-22T01:56:27;6.60;99.90
45619;DHT22;31343;47.520;19.144;2023-12-22T01:58:57;6.60;99.90
45619;DHT22;31343;47.520;19.144;2023-12-22T02:01:23;6.60;99.90
45619;DHT22;31343;47.520;19.144;2023-12-22T02:03:51;6.60;99.90
45619;DHT22;31343;47.520;19.144;2023-12-22T02:06:20;6.60;99.90
45619;DHT22;31343;47.520;19.144;2023-12-22T02:08:49;6.60;99.90
45619;DHT22;31343;47.520;19.144;2023-12-22T02:11:16;6.60;99.90
45619;DHT22;31343;47.520;19.144;2023-12-22T02:13:45;6.50;99.90
45619;DHT22;31343;47.520;19.144;2023-12-22T02:19:23;6.50;99.90
45619;DHT22;31343;47.520;19.144;2023-12-22T02:22:05;6.50;99.90
45619;DHT22;31343;47.520;19.144;2023-12-22T02:24:31;6.50;99.90
45619;DHT22;31343;47.520;19.144;2023-12-22T02:27:04;6.50;99.90
45619;DHT22;31343;47.520;19.144;2023-12-22T02:30:11;6.50;99.90
45619;DHT22;31343;47.520;19.144;2023-12-22T02:32:42;6.50;99.90
45619;DHT22;31343;47.520;19.144;2023-12-22T02:35:17;6.50;99.90
45619;DHT22;31343;47.520;19.144;2023-12-22T02:37:46;6.50;99.90
45619;DHT22;31343;47.520;19.144;2023-12-22T02:40:14;6.50;99.90
45619;DHT22;31343;47.520;19.144;2023-12-22T02:42:40;6.50;99.90
45619;DHT22;31343;47.520;19.144;2023-12-22T02:45:16;6.50;99.90
45619;DHT22;31343;47.520;19.144;2023-12-22T02:47:42;6.50;99.90
45619;DHT22;31343;47.520;19.144;2023-12-22T02:50:09;6.50;99.90
45619;DHT22;31343;47.520;19.144;2023-12-22T02:52:35;6.40;99.90
45619;DHT22;31343;47.520;19.144;2023-12-22T02:55:04;6.40;99.90
45619;DHT22;31343;47.520;19.144;2023-12-22T02:57:30;6.40;99.90
45619;DHT22;31343;47.520;19.144;2023-12-22T02:59:56;6.40;99.90
45619;DHT22;31343;47.520;19.144;2023-12-22T03:02:22;6.40;99.90
45619;DHT22;31343;47.520;19.144;2023-12-22T03:04:48;6.40;99.90
45619;DHT22;31343;47.520;19.144;2023-12-22T03:07:14;6.40;99.90
45619;DHT22;31343;47.520;19.144;2023-12-22T03:09:40;6.40;99.90
45619;DHT22;31343;47.520;19.144;2023-12-22T03:12:07;6.50;99.90
45619;DHT22;31343;47.520;19.144;2023-12-22T03:14:33;6.50;99.90
45619;DHT22;31343;47.520;19.144;2023-12-22T03:17:06;6.40;99.90
45619;DHT22;31343;47.520;19.144;2023-12-22T03:19:32;6.50;99.90
45619;DHT22;31343;47.520;19.144;2023-12-22T03:21:58;6.50;99.90
45619;DHT22;31343;47.520;19.144;2023-12-22T03:24:25;6.50;99.90
45619;DHT22;31343;47.520;19.144;2023-12-22T03:26:53;6.50;99.90
45619;DHT22;31343;47.520;19.144;2023-12-22T03:29:19;6.50;99.90
45619;DHT22;31343;47.520;19.144;2023-12-22T03:31:45;6.50;99.90
45619;DHT22;31343;47.520;19.144;2023-12-22T03:34:11;6.50;99.90
45619;DHT22;31343;47.520;19.144;2023-12-22T03:36:37;6.50;99.90
45619;DHT22;31343;47.520;19.144;2023-12-22T03:39:03;6.50;99.90
45619;DHT22;31343;47.520;19.144;2023-12-22T03:41:30;6.40;99.90
45619;DHT22;31343;47.520;19.144;2023-12-22T03:43:56;6.40;99.90
45619;DHT22;31343;47.520;19.144;2023-12-22T03:46:22;6.40;99.90
45619;DHT22;31343;47.520;19.144;2023-12-22T03:48:50;6.40;99.90
45619;DHT22;31343;47.520;19.144;2023-12-22T03:51:15;6.40;99.90
45619;DHT22;31343;47.520;19.144;2023-12-22T03:53:41;6.40;99.90
45619;DHT22;31343;47.520;19.144;2023-12-22T03:56:08;6.40;99.90
45619;DHT22;31343;47.520;19.144;2023-12-22T03:58:35;6.40;99.90
45619;DHT22;31343;47.520;19.144;2023-12-22T04:01:00;6.40;99.90
45619;DHT22;31343;47.520;19.144;2023-12-22T04:03:26;6.40;99.90
45619;DHT22;31343;47.520;19.144;2023-12-22T04:05:52;6.40;99.90
45619;DHT22;31343;47.520;19.144;2023-12-22T04:08:18;6.40;99.90
45619;DHT22;31343;47.520;19.144;2023-12-22T04:10:45;6.40;99.90
45619;DHT22;31343;47.520;19.144;2023-12-22T04:13:11;6.40;99.90
45619;DHT22;31343;47.520;19.144;2023-12-22T04:15:37;6.30;99.90
45619;DHT22;31343;47.520;19.144;2023-12-22T04:18:02;6.30;99.90
45619;DHT22;31343;47.520;19.144;2023-12-22T04:20:29;6.30;99.90
45619;DHT22;31343;47.520;19.144;2023-12-22T04:22:54;6.20;99.90
45619;DHT22;31343;47.520;19.144;2023-12-22T04:25:20;6.20;99.90
45619;DHT22;31343;47.520;19.144;2023-12-22T04:27:48;6.20;99.90
45619;DHT22;31343;47.520;19.144;2023-12-22T04:30:15;6.20;99.90
45619;DHT22;31343;47.520;19.144;2023-12-22T04:32:41;6.20;99.90
45619;DHT22;31343;47.520;19.144;2023-12-22T04:35:07;6.20;99.90
45619;DHT22;31343;47.520;19.144;2023-12-22T04:37:33;6.20;99.90
45619;DHT22;31343;47.520;19.144;2023-12-22T04:39:58;6.20;99.90
45619;DHT22;31343;47.520;19.144;2023-12-22T04:42:24;6.20;99.90
45619;DHT22;31343;47.520;19.144;2023-12-22T04:44:51;6.20;99.90
45619;DHT22;31343;47.520;19.144;2023-12-22T04:47:17;6.00;99.90
45619;DHT22;31343;47.520;19.144;2023-12-22T04:49:43;6.00;99.90
45619;DHT22;31343;47.520;19.144;2023-12-22T04:52:10;5.90;99.90
45619;DHT22;31343;47.520;19.144;2023-12-22T04:54:36;5.80;99.90
45619;DHT22;31343;47.520;19.144;2023-12-22T04:57:01;5.70;99.90
45619;DHT22;31343;47.520;19.144;2023-12-22T04:59:27;5.60;99.90
45619;DHT22;31343;47.520;19.144;2023-12-22T05:01:53;5.50;99.90
45619;DHT22;31343;47.520;19.144;2023-12-22T05:04:19;5.50;99.90
45619;DHT22;31343;47.520;19.144;2023-12-22T05:06:46;5.40;99.90
45619;DHT22;31343;47.520;19.144;2023-12-22T05:09:11;5.30;99.90
45619;DHT22;31343;47.520;19.144;2023-12-22T05:11:37;5.30;99.90
45619;DHT22;31343;47.520;19.144;2023-12-22T05:14:04;5.20;99.90
45619;DHT22;31343;47.520;19.144;2023-12-22T05:16:29;5.10;99.90
45619;DHT22;31343;47.520;19.144;2023-12-22T05:18:57;5.10;99.90
45619;DHT22;31343;47.520;19.144;2023-12-22T05:21:24;5.00;99.90
45619;DHT22;31343;47.520;19.144;2023-12-22T05:23:49;5.00;99.90
45619;DHT22;31343;47.520;19.144;2023-12-22T05:26:21;4.90;99.90
45619;DHT22;31343;47.520;19.144;2023-12-22T05:28:48;4.80;99.90
45619;DHT22;31343;47.520;19.144;2023-12-22T05:31:17;4.70;99.90
45619;DHT22;31343;47.520;19.144;2023-12-22T05:33:43;4.70;99.90
45619;DHT22;31343;47.520;19.144;2023-12-22T05:36:08;4.70;99.90
45619;DHT22;31343;47.520;19.144;2023-12-22T05:38:38;4.60;99.90
45619;DHT22;31343;47.520;19.144;2023-12-22T05:41:04;4.60;99.90
45619;DHT22;31343;47.520;19.144;2023-12-22T05:43:30;4.60;99.90
45619;DHT22;31343;47.520;19.144;2023-12-22T05:45:56;4.60;99.90
45619;DHT22;31343;47.520;19.144;2023-12-22T05:48:22;4.60;99.90
45619;DHT22;31343;47.520;19.144;2023-12-22T05:50:48;4.70;99.90
45619;DHT22;31343;47.520;19.144;2023-12-22T05:53:14;4.60;99.90
45619;DHT22;31343;47.520;19.144;2023-12-22T05:55:40;4.60;99.90
45619;DHT22;31343;47.520;19.144;2023-12-22T05:58:06;4.70;99.90
45619;DHT22;31343;47.520;19.144;2023-12-22T06:00:32;4.70;99.90
45619;DHT22;31343;47.520;19.144;2023-12-22T06:02:57;4.70;99.90
45619;DHT22;31343;47.520;19.144;2023-12-22T06:05:23;4.70;99.90
45619;DHT22;31343;47.520;19.144;2023-12-22T06:07:49;4.70;99.90
45619;DHT22;31343;47.520;19.144;2023-12-22T06:10:15;4.70;99.90
45619;DHT22;31343;47.520;19.144;2023-12-22T06:12:41;4.70;99.90
45619;DHT22;31343;47.520;19.144;2023-12-22T06:15:07;4.80;99.90
45619;DHT22;31343;47.520;19.144;2023-12-22T06:17:32;4.80;99.90
45619;DHT22;31343;47.520;19.144;2023-12-22T06:19:58;4.80;99.90
45619;DHT22;31343;47.520;19.144;2023-12-22T06:22:24;4.90;99.90
45619;DHT22;31343;47.520;19.144;2023-12-22T06:24:50;4.90;99.90
45619;DHT22;31343;47.520;19.144;2023-12-22T06:27:16;4.90;99.90
45619;DHT22;31343;47.520;19.144;2023-12-22T06:29:42;5.00;99.90
45619;DHT22;31343;47.520;19.144;2023-12-22T06:32:08;5.00;99.90
45619;DHT22;31343;47.520;19.144;2023-12-22T06:34:33;5.00;99.90
45619;DHT22;31343;47.520;19.144;2023-12-22T06:36:59;5.00;99.90
45619;DHT22;31343;47.520;19.144;2023-12-22T06:39:25;5.00;99.90
45619;DHT22;31343;47.520;19.144;2023-12-22T06:41:50;5.10;99.90
45619;DHT22;31343;47.520;19.144;2023-12-22T06:44:16;5.20;99.90
45619;DHT22;31343;47.520;19.144;2023-12-22T06:46:42;5.20;99.90
45619;DHT22;31343;47.520;19.144;2023-12-22T06:49:08;5.30;99.90
45619;DHT22;31343;47.520;19.144;2023-12-22T06:51:34;5.30;99.90
45619;DHT22;31343;47.520;19.144;2023-12-22T06:54:01;5.40;99.90
45619;DHT22;31343;47.520;19.144;2023-12-22T06:56:29;5.40;99.90
45619;DHT22;31343;47.520;19.144;2023-12-22T06:58:56;5.50;99.90
45619;DHT22;31343;47.520;19.144;2023-12-22T07:01:30;5.50;99.90
45619;DHT22;31343;47.520;19.144;2023-12-22T07:04:00;5.60;99.90
45619;DHT22;31343;47.520;19.144;2023-12-22T07:06:29;5.90;99.90
45619;DHT22;31343;47.520;19.144;2023-12-22T07:11:50;6.40;99.90
45619;DHT22;31343;47.520;19.144;2023-12-22T07:14:17;6.60;99.90
45619;DHT22;31343;47.520;19.144;2023-12-22T07:16:43;6.80;99.90
45619;DHT22;31343;47.520;19.144;2023-12-22T07:19:09;6.80;99.90
45619;DHT22;31343;47.520;19.144;2023-12-22T07:21:35;6.90;99.90
45619;DHT22;31343;47.520;19.144;2023-12-22T07:24:01;6.80;99.90
45619;DHT22;31343;47.520;19.144;2023-12-22T07:26:27;6.80;99.90
45619;DHT22;31343;47.520;19.144;2023-12-22T07:28:53;6.90;99.90
45619;DHT22;31343;47.520;19.144;2023-12-22T07:31:19;6.90;99.90
45619;DHT22;31343;47.520;19.144;2023-12-22T07:33:45;7.00;99.90
45619;DHT22;31343;47.520;19.144;2023-12-22T07:36:11;7.00;99.90
45619;DHT22;31343;47.520;19.144;2023-12-22T07:38:38;7.00;99.90
45619;DHT22;31343;47.520;19.144;2023-12-22T07:41:05;6.90;99.90
45619;DHT22;31343;47.520;19.144;2023-12-22T07:43:31;6.70;99.90
45619;DHT22;31343;47.520;19.144;2023-12-22T07:45:56;6.60;99.90
45619;DHT22;31343;47.520;19.144;2023-12-22T07:48:22;6.50;99.90
45619;DHT22;31343;47.520;19.144;2023-12-22T07:50:49;6.50;99.90
45619;DHT22;31343;47.520;19.144;2023-12-22T07:53:16;6.40;99.90
45619;DHT22;31343;47.520;19.144;2023-12-22T07:55:42;6.40;99.90
45619;DHT22;31343;47.520;19.144;2023-12-22T07:58:08;6.60;99.90
45619;DHT22;31343;47.520;19.144;2023-12-22T08:00:34;6.60;99.90
45619;DHT22;31343;47.520;19.144;2023-12-22T08:03:00;6.60;99.90
45619;DHT22;31343;47.520;19.144;2023-12-22T08:05:26;6.60;99.90
45619;DHT22;31343;47.520;19.144;2023-12-22T08:07:52;6.70;99.90
45619;DHT22;31343;47.520;19.144;2023-12-22T08:10:18;6.90;99.90
45619;DHT22;31343;47.520;19.144;2023-12-22T08:12:44;7.10;99.90
45619;DHT22;31343;47.520;19.144;2023-12-22T08:15:10;7.20;99.90
45619;DHT22;31343;47.520;19.144;2023-12-22T08:17:36;7.40;99.90
45619;DHT22;31343;47.520;19.144;2023-12-22T08:20:04;7.40;99.90
45619;DHT22;31343;47.520;19.144;2023-12-22T08:22:29;7.50;99.90
45619;DHT22;31343;47.520;19.144;2023-12-22T08:24:55;7.60;99.90
45619;DHT22;31343;47.520;19.144;2023-12-22T08:27:21;7.90;99.90
45619;DHT22;31343;47.520;19.144;2023-12-22T08:29:46;8.00;99.90
45619;DHT22;31343;47.520;19.144;2023-12-22T08:32:12;8.20;99.90
45619;DHT22;31343;47.520;19.144;2023-12-22T08:34:38;8.20;99.90
45619;DHT22;31343;47.520;19.144;2023-12-22T08:37:05;8.30;99.90
45619;DHT22;31343;47.520;19.144;2023-12-22T08:39:30;8.50;99.50
45619;DHT22;31343;47.520;19.144;2023-12-22T08:41:56;8.50;99.50
45619;DHT22;31343;47.520;19.144;2023-12-22T08:44:22;8.70;99.50
45619;DHT22;31343;47.520;19.144;2023-12-22T08:46:48;8.80;98.90
45619;DHT22;31343;47.520;19.144;2023-12-22T08:49:13;8.90;98.60
45619;DHT22;31343;47.520;19.144;2023-12-22T08:51:39;8.80;98.70
45619;DHT22;31343;47.520;19.144;2023-12-22T08:54:05;8.70;98.70
45619;DHT22;31343;47.520;19.144;2023-12-22T08:56:31;8.40;99.30
45619;DHT22;31343;47.520;19.144;2023-12-22T08:58:56;8.20;99.90
45619;DHT22;31343;47.520;19.144;2023-12-22T09:01:25;8.00;97.70
45619;DHT22;31343;47.520;19.144;2023-12-22T09:03:50;7.90;99.20
45619;DHT22;31343;47.520;19.144;2023-12-22T09:06:21;7.80;98.70
45619;DHT22;31343;47.520;19.144;2023-12-22T09:08:48;7.70;99.40
45619;DHT22;31343;47.520;19.144;2023-12-22T09:11:17;7.80;99.90
45619;DHT22;31343;47.520;19.144;2023-12-22T09:13:43;7.50;98.50
45619;DHT22;31343;47.520;19.144;2023-12-22T09:16:09;7.60;99.70
45619;DHT22;31343;47.520;19.144;2023-12-22T09:18:36;7.50;99.90
45619;DHT22;31343;47.520;19.144;2023-12-22T09:21:02;7.40;99.90
45619;DHT22;31343;47.520;19.144;2023-12-22T09:23:28;7.40;99.90
45619;DHT22;31343;47.520;19.144;2023-12-22T09:25:54;7.50;99.90
45619;DHT22;31343;47.520;19.144;2023-12-22T09:28:20;7.50;99.90
45619;DHT22;31343;47.520;19.144;2023-12-22T09:30:46;7.50;99.90
45619;DHT22;31343;47.520;19.144;2023-12-22T09:33:12;7.60;99.90
45619;DHT22;31343;47.520;19.144;2023-12-22T09:35:38;7.60;99.90
45619;DHT22;31343;47.520;19.144;2023-12-22T09:38:07;7.60;99.90
45619;DHT22;31343;47.520;19.144;2023-12-22T09:40:35;7.60;99.90
45619;DHT22;31343;47.520;19.144;2023-12-22T09:43:02;7.70;99.90
45619;DHT22;31343;47.520;19.144;2023-12-22T09:45:32;7.70;99.90
45619;DHT22;31343;47.520;19.144;2023-12-22T09:48:02;7.70;99.90
45619;DHT22;31343;47.520;19.144;2023-12-22T09:50:30;7.70;99.90
45619;DHT22;31343;47.520;19.144;2023-12-22T09:52:56;7.80;99.90
45619;DHT22;31343;47.520;19.144;2023-12-22T09:55:22;7.80;99.90
45619;DHT22;31343;47.520;19.144;2023-12-22T09:57:49;7.90;99.90
45619;DHT22;31343;47.520;19.144;2023-12-22T10:00:16;7.90;99.90
45619;DHT22;31343;47.520;19.144;2023-12-22T10:02:43;7.90;99.90
45619;DHT22;31343;47.520;19.144;2023-12-22T10:05:11;7.90;99.90
45619;DHT22;31343;47.520;19.144;2023-12-22T10:07:39;7.80;99.90
45619;DHT22;31343;47.520;19.144;2023-12-22T10:10:07;7.80;99.90
45619;DHT22;31343;47.520;19.144;2023-12-22T10:12:34;7.80;99.90
45619;DHT22;31343;47.520;19.144;2023-12-22T10:15:01;7.80;99.90
45619;DHT22;31343;47.520;19.144;2023-12-22T10:17:27;7.80;99.90
45619;DHT22;31343;47.520;19.144;2023-12-22T10:19:54;7.80;99.90
45619;DHT22;31343;47.520;19.144;2023-12-22T10:22:20;7.80;99.90
45619;DHT22;31343;47.520;19.144;2023-12-22T10:24:48;7.80;99.90
45619;DHT22;31343;47.520;19.144;2023-12-22T10:27:18;7.80;99.90
45619;DHT22;31343;47.520;19.144;2023-12-22T10:29:54;7.70;99.90
45619;DHT22;31343;47.520;19.144;2023-12-22T10:32:20;7.80;99.90
45619;DHT22;31343;47.520;19.144;2023-12-22T10:34:47;7.90;99.90
45619;DHT22;31343;47.520;19.144;2023-12-22T10:37:13;8.00;99.90
45619;DHT22;31343;47.520;19.144;2023-12-22T10:39:39;8.10;99.90
45619;DHT22;31343;47.520;19.144;2023-12-22T10:42:05;8.10;99.90
45619;DHT22;31343;47.520;19.144;2023-12-22T10:44:31;8.10;99.90
45619;DHT22;31343;47.520;19.144;2023-12-22T10:46:57;8.20;99.90
45619;DHT22;31343;47.520;19.144;2023-12-22T10:49:24;8.30;99.90
45619;DHT22;31343;47.520;19.144;2023-12-22T10:51:50;8.30;99.90
45619;DHT22;31343;47.520;19.144;2023-12-22T10:54:18;8.40;99.90
45619;DHT22;31343;47.520;19.144;2023-12-22T10:56:45;8.50;99.90
45619;DHT22;31343;47.520;19.144;2023-12-22T10:59:11;8.60;99.90
45619;DHT22;31343;47.520;19.144;2023-12-22T11:01:37;8.70;99.90
45619;DHT22;31343;47.520;19.144;2023-12-22T11:04:07;8.90;99.90
45619;DHT22;31343;47.520;19.144;2023-12-22T11:06:37;9.00;99.20
45619;DHT22;31343;47.520;19.144;2023-12-22T11:09:13;9.20;99.20
45619;DHT22;31343;47.520;19.144;2023-12-22T11:11:41;9.20;99.00
45619;DHT22;31343;47.520;19.144;2023-12-22T11:14:08;9.40;98.60
45619;DHT22;31343;47.520;19.144;2023-12-22T11:16:35;9.70;98.40
45619;DHT22;31343;47.520;19.144;2023-12-22T11:19:03;9.70;98.00
45619;DHT22;31343;47.520;19.144;2023-12-22T11:21:30;9.60;98.40
45619;DHT22;31343;47.520;19.144;2023-12-22T11:23:56;9.50;98.00
45619;DHT22;31343;47.520;19.144;2023-12-22T11:26:25;9.60;98.30
45619;DHT22;31343;47.520;19.144;2023-12-22T11:28:52;9.80;96.90
45619;DHT22;31343;47.520;19.144;2023-12-22T11:31:18;9.70;96.60
45619;DHT22;31343;47.520;19.144;2023-12-22T11:33:50;9.80;97.10
45619;DHT22;31343;47.520;19.144;2023-12-22T11:36:17;10.00;96.80
45619;DHT22;31343;47.520;19.144;2023-12-22T11:38:46;10.20;97.40
45619;DHT22;31343;47.520;19.144;2023-12-22T11:41:25;10.20;96.20
45619;DHT22;31343;47.520;19.144;2023-12-22T11:43:53;10.10;96.80
45619;DHT22;31343;47.520;19.144;2023-12-22T11:46:19;9.90;96.20
45619;DHT22;31343;47.520;19.144;2023-12-22T11:48:51;9.90;96.60
45619;DHT22;31343;47.520;19.144;2023-12-22T11:51:18;9.90;96.80
45619;DHT22;31343;47.520;19.144;2023-12-22T11:53:44;10.10;96.20
45619;DHT22;31343;47.520;19.144;2023-12-22T11:56:12;10.20;96.60
45619;DHT22;31343;47.520;19.144;2023-12-22T11:58:46;10.40;94.50
45619;DHT22;31343;47.520;19.144;2023-12-22T12:01:18;10.20;93.80
45619;DHT22;31343;47.520;19.144;2023-12-22T12:03:55;10.10;94.10
45619;DHT22;31343;47.520;19.144;2023-12-22T12:08:56;9.60;95.20
45619;DHT22;31343;47.520;19.144;2023-12-22T12:11:23;9.50;95.70
45619;DHT22;31343;47.520;19.144;2023-12-22T12:13:50;9.40;95.30
45619;DHT22;31343;47.520;19.144;2023-12-22T12:16:20;9.40;95.50
45619;DHT22;31343;47.520;19.144;2023-12-22T12:18:47;9.30;95.90
45619;DHT22;31343;47.520;19.144;2023-12-22T12:21:13;9.10;95.40
45619;DHT22;31343;47.520;19.144;2023-12-22T12:23:41;9.00;96.40
45619;DHT22;31343;47.520;19.144;2023-12-22T12:26:08;8.80;96.80
45619;DHT22;31343;47.520;19.144;2023-12-22T12:28:35;8.90;96.50
45619;DHT22;31343;47.520;19.144;2023-12-22T12:31:06;8.90;96.40
45619;DHT22;31343;47.520;19.144;2023-12-22T12:33:32;8.90;96.80
45619;DHT22;31343;47.520;19.144;2023-12-22T12:35:59;8.80;97.10
45619;DHT22;31343;47.520;19.144;2023-12-22T12:41:15;8.90;97.30
45619;DHT22;31343;47.520;19.144;2023-12-22T12:43:42;9.00;98.20
45619;DHT22;31343;47.520;19.144;2023-12-22T12:46:09;9.00;98.20
45619;DHT22;31343;47.520;19.144;2023-12-22T12:48:35;8.80;98.20
45619;DHT22;31343;47.520;19.144;2023-12-22T12:51:05;8.60;98.50
45619;DHT22;31343;47.520;19.144;2023-12-22T12:53:32;8.40;99.30
45619;DHT22;31343;47.520;19.144;2023-12-22T12:55:59;8.20;99.90
45619;DHT22;31343;47.520;19.144;2023-12-22T12:58:32;7.90;99.90
45619;DHT22;31343;47.520;19.144;2023-12-22T13:01:08;7.60;99.90
45619;DHT22;31343;47.520;19.144;2023-12-22T13:03:55;7.20;99.90
45619;DHT22;31343;47.520;19.144;2023-12-22T13:06:22;6.90;99.90
45619;DHT22;31343;47.520;19.144;2023-12-22T13:08:51;6.70;99.90
45619;DHT22;31343;47.520;19.144;2023-12-22T13:11:25;6.60;99.90
45619;DHT22;31343;47.520;19.144;2023-12-22T13:13:52;6.50;99.90
45619;DHT22;31343;47.520;19.144;2023-12-22T13:16:25;6.20;99.90
45619;DHT22;31343;47.520;19.144;2023-12-22T13:18:52;6.10;99.90
45619;DHT22;31343;47.520;19.144;2023-12-22T13:21:18;5.80;99.90
45619;DHT22;31343;47.520;19.144;2023-12-22T13:23:44;5.60;99.90
45619;DHT22;31343;47.520;19.144;2023-12-22T13:26:30;5.50;99.90
45619;DHT22;31343;47.520;19.144;2023-12-22T13:28:57;5.60;99.90
45619;DHT22;31343;47.520;19.144;2023-12-22T13:31:24;5.90;99.90
45619;DHT22;31343;47.520;19.144;2023-12-22T13:33:50;6.10;99.90
45619;DHT22;31343;47.520;19.144;2023-12-22T13:36:16;6.30;99.90
45619;DHT22;31343;47.520;19.144;2023-12-22T13:38:48;6.40;99.90
45619;DHT22;31343;47.520;19.144;2023-12-22T13:41:15;6.50;99.90
45619;DHT22;31343;47.520;19.144;2023-12-22T13:43:41;6.50;99.90
45619;DHT22;31343;47.520;19.144;2023-12-22T13:46:13;6.60;99.90
45619;DHT22;31343;47.520;19.144;2023-12-22T13:48:40;6.50;99.90
45619;DHT22;31343;47.520;19.144;2023-12-22T13:51:06;6.40;99.90
45619;DHT22;31343;47.520;19.144;2023-12-22T13:53:33;6.30;99.90
45619;DHT22;31343;47.520;19.144;2023-12-22T13:56:00;6.10;99.90
45619;DHT22;31343;47.520;19.144;2023-12-22T13:58:26;6.00;99.90
45619;DHT22;31343;47.520;19.144;2023-12-22T14:00:52;5.90;99.90
45619;DHT22;31343;47.520;19.144;2023-12-22T14:03:19;5.80;99.90
45619;DHT22;31343;47.520;19.144;2023-12-22T14:05:54;5.80;99.90
45619;DHT22;31343;47.520;19.144;2023-12-22T14:08:21;5.70;99.90
45619;DHT22;31343;47.520;19.144;2023-12-22T14:10:49;5.70;99.90
45619;DHT22;31343;47.520;19.144;2023-12-22T14:13:15;5.60;99.90
45619;DHT22;31343;47.520;19.144;2023-12-22T14:15:44;5.50;99.90
45619;DHT22;31343;47.520;19.144;2023-12-22T14:18:12;5.50;99.90
45619;DHT22;31343;47.520;19.144;2023-12-22T14:20:38;5.70;99.90
45619;DHT22;31343;47.520;19.144;2023-12-22T14:23:04;5.90;99.90
45619;DHT22;31343;47.520;19.144;2023-12-22T14:25:30;5.80;99.90
45619;DHT22;31343;47.520;19.144;2023-12-22T14:27:57;5.70;99.90
45619;DHT22;31343;47.520;19.144;2023-12-22T14:30:24;5.60;99.90
45619;DHT22;31343;47.520;19.144;2023-12-22T14:32:50;5.40;99.90
45619;DHT22;31343;47.520;19.144;2023-12-22T14:35:15;5.30;99.90
45619;DHT22;31343;47.520;19.144;2023-12-22T14:37:41;5.10;99.90
45619;DHT22;31343;47.520;19.144;2023-12-22T14:40:08;5.10;99.90
45619;DHT22;31343;47.520;19.144;2023-12-22T14:42:34;5.00;99.90
45619;DHT22;31343;47.520;19.144;2023-12-22T14:45:00;4.90;99.90
45619;DHT22;31343;47.520;19.144;2023-12-22T14:47:29;4.80;99.90
45619;DHT22;31343;47.520;19.144;2023-12-22T14:49:56;4.80;99.90
45619;DHT22;31343;47.520;19.144;2023-12-22T14:52:25;4.90;99.90
45619;DHT22;31343;47.520;19.144;2023-12-22T14:54:51;5.00;99.90
45619;DHT22;31343;47.520;19.144;2023-12-22T14:57:17;5.10;99.90
45619;DHT22;31343;47.520;19.144;2023-12-22T14:59:47;5.10;99.90
45619;DHT22;31343;47.520;19.144;2023-12-22T15:02:12;5.10;99.90
45619;DHT22;31343;47.520;19.144;2023-12-22T15:04:38;5.20;99.90
45619;DHT22;31343;47.520;19.144;2023-12-22T15:07:04;5.20;99.90
45619;DHT22;31343;47.520;19.144;2023-12-22T15:09:29;5.20;99.90
45619;DHT22;31343;47.520;19.144;2023-12-22T15:11:55;5.30;99.90
45619;DHT22;31343;47.520;19.144;2023-12-22T15:14:21;5.30;99.90
45619;DHT22;31343;47.520;19.144;2023-12-22T15:16:47;5.30;99.90
45619;DHT22;31343;47.520;19.144;2023-12-22T15:19:16;5.40;99.90
45619;DHT22;31343;47.520;19.144;2023-12-22T15:21:43;5.40;99.90
45619;DHT22;31343;47.520;19.144;2023-12-22T15:24:09;5.40;99.90
45619;DHT22;31343;47.520;19.144;2023-12-22T15:26:35;5.40;99.90
45619;DHT22;31343;47.520;19.144;2023-12-22T15:29:03;5.40;99.90
45619;DHT22;31343;47.520;19.144;2023-12-22T15:31:29;5.40;99.90
45619;DHT22;31343;47.520;19.144;2023-12-22T15:33:58;5.40;99.90
45619;DHT22;31343;47.520;19.144;2023-12-22T15:36:24;5.50;99.90
45619;DHT22;31343;47.520;19.144;2023-12-22T15:38:51;5.50;99.90
45619;DHT22;31343;47.520;19.144;2023-12-22T15:41:17;5.50;99.90